sensor_id;sensor_type;location;lat;lon;timestamp;P1;durP1;ratioP1;P2;durP2;ratioP2
56363;SDS011;42261;52.094;4.326;2023-02-18T00:01:32;23.08;;;8.77;;
56363;SDS011;42261;52.094;4.326;2023-02-18T00:04:16;29.13;;;10.77;;
56363;SDS011;42261;52.094;4.326;2023-02-18T00:07:00;26.52;;;10.00;;
56363;SDS011;42261;52.094;4.326;2023-02-18T00:09:44;26.77;;;10.45;;
56363;SDS011;42261;52.094;4.326;2023-02-18T00:12:29;28.35;;;11.32;;
56363;SDS011;42261;52.094;4.326;2023-02-18T00:15:13;28.40;;;10.55;;
56363;SDS011;42261;52.094;4.326;2023-02-18T00:17:57;27.58;;;9.82;;
56363;SDS011;42261;52.094;4.326;2023-02-18T00:20:41;32.30;;;11.40;;
56363;SDS011;42261;52.094;4.326;2023-02-18T00:23:26;30.10;;;12.68;;
56363;SDS011;42261;52.094;4.326;2023-02-18T00:26:11;32.15;;;11.23;;
56363;SDS011;42261;52.094;4.326;2023-02-18T00:28:57;39.20;;;12.07;;
56363;SDS011;42261;52.094;4.326;2023-02-18T00:31:40;38.90;;;11.20;;
56363;SDS011;42261;52.094;4.326;2023-02-18T00:34:24;30.88;;;12.13;;
56363;SDS011;42261;52.094;4.326;2023-02-18T00:37:09;31.85;;;11.82;;
56363;SDS011;42261;52.094;4.326;2023-02-18T00:39:53;31.83;;;12.98;;
56363;SDS011;42261;52.094;4.326;2023-02-18T00:42:39;31.85;;;13.52;;
56363;SDS011;42261;52.094;4.326;2023-02-18T00:45:23;34.05;;;13.15;;
56363;SDS011;42261;52.094;4.326;2023-02-18T00:48:07;35.78;;;12.95;;
56363;SDS011;42261;52.094;4.326;2023-02-18T00:50:51;33.65;;;12.20;;
56363;SDS011;42261;52.094;4.326;2023-02-18T00:53:35;35.83;;;13.73;;
56363;SDS011;42261;52.094;4.326;2023-02-18T00:56:19;31.23;;;11.90;;
56363;SDS011;42261;52.094;4.326;2023-02-18T00:59:03;36.25;;;15.05;;
56363;SDS011;42261;52.094;4.326;2023-02-18T01:01:47;35.20;;;14.18;;
56363;SDS011;42261;52.094;4.326;2023-02-18T01:04:31;36.05;;;14.13;;
56363;SDS011;42261;52.094;4.326;2023-02-18T01:07:15;35.08;;;13.68;;
56363;SDS011;42261;52.094;4.326;2023-02-18T01:09:59;31.00;;;13.75;;
56363;SDS011;42261;52.094;4.326;2023-02-18T01:12:43;29.02;;;13.57;;
56363;SDS011;42261;52.094;4.326;2023-02-18T01:15:28;29.23;;;11.20;;
56363;SDS011;42261;52.094;4.326;2023-02-18T01:18:13;25.08;;;12.23;;
56363;SDS011;42261;52.094;4.326;2023-02-18T01:20:58;28.40;;;12.32;;
56363;SDS011;42261;52.094;4.326;2023-02-18T01:23:43;30.08;;;12.32;;
56363;SDS011;42261;52.094;4.326;2023-02-18T01:26:27;26.10;;;10.55;;
56363;SDS011;42261;52.094;4.326;2023-02-18T01:29:10;26.65;;;11.82;;
56363;SDS011;42261;52.094;4.326;2023-02-18T01:31:54;28.50;;;12.23;;
56363;SDS011;42261;52.094;4.326;2023-02-18T01:34:38;30.63;;;11.85;;
56363;SDS011;42261;52.094;4.326;2023-02-18T01:37:23;25.25;;;10.93;;
56363;SDS011;42261;52.094;4.326;2023-02-18T01:40:09;26.52;;;11.40;;
56363;SDS011;42261;52.094;4.326;2023-02-18T01:42:53;29.13;;;11.68;;
56363;SDS011;42261;52.094;4.326;2023-02-18T01:48:35;25.77;;;11.55;;
56363;SDS011;42261;52.094;4.326;2023-02-18T01:51:23;27.90;;;10.90;;
56363;SDS011;42261;52.094;4.326;2023-02-18T01:54:09;27.03;;;11.37;;
56363;SDS011;42261;52.094;4.326;2023-02-18T01:57:02;25.75;;;10.13;;
56363;SDS011;42261;52.094;4.326;2023-02-18T02:00:06;28.75;;;12.80;;
56363;SDS011;42261;52.094;4.326;2023-02-18T02:02:52;26.40;;;11.40;;
56363;SDS011;42261;52.094;4.326;2023-02-18T02:05:36;29.55;;;11.13;;
56363;SDS011;42261;52.094;4.326;2023-02-18T02:08:21;23.98;;;10.20;;
56363;SDS011;42261;52.094;4.326;2023-02-18T02:14:02;25.52;;;11.23;;
56363;SDS011;42261;52.094;4.326;2023-02-18T02:17:07;27.38;;;11.57;;
56363;SDS011;42261;52.094;4.326;2023-02-18T02:31:45;26.80;;;10.48;;
56363;SDS011;42261;52.094;4.326;2023-02-18T02:37:55;24.95;;;9.32;;
56363;SDS011;42261;52.094;4.326;2023-02-18T02:41:01;23.88;;;9.95;;
56363;SDS011;42261;52.094;4.326;2023-02-18T02:43:50;30.52;;;11.15;;
56363;SDS011;42261;52.094;4.326;2023-02-18T02:46:42;25.90;;;10.95;;
56363;SDS011;42261;52.094;4.326;2023-02-18T02:55:42;20.23;;;8.57;;
56363;SDS011;42261;52.094;4.326;2023-02-18T02:58:27;17.75;;;7.10;;
56363;SDS011;42261;52.094;4.326;2023-02-18T03:09:41;15.85;;;7.85;;
56363;SDS011;42261;52.094;4.326;2023-02-18T03:18:19;17.75;;;6.38;;
56363;SDS011;42261;52.094;4.326;2023-02-18T03:21:09;20.20;;;7.78;;
56363;SDS011;42261;52.094;4.326;2023-02-18T03:23:55;15.20;;;6.22;;
56363;SDS011;42261;52.094;4.326;2023-02-18T03:26:41;22.20;;;9.25;;
56363;SDS011;42261;52.094;4.326;2023-02-18T03:29:27;23.13;;;7.90;;
56363;SDS011;42261;52.094;4.326;2023-02-18T03:32:12;19.95;;;8.93;;
56363;SDS011;42261;52.094;4.326;2023-02-18T03:35:02;21.63;;;8.18;;
56363;SDS011;42261;52.094;4.326;2023-02-18T03:37:51;24.17;;;8.88;;
56363;SDS011;42261;52.094;4.326;2023-02-18T03:40:37;23.33;;;8.60;;
56363;SDS011;42261;52.094;4.326;2023-02-18T03:43:22;22.25;;;8.52;;
56363;SDS011;42261;52.094;4.326;2023-02-18T03:46:06;18.90;;;8.82;;
56363;SDS011;42261;52.094;4.326;2023-02-18T03:48:50;23.25;;;10.18;;
56363;SDS011;42261;52.094;4.326;2023-02-18T03:51:34;27.85;;;8.95;;
56363;SDS011;42261;52.094;4.326;2023-02-18T03:54:18;28.67;;;10.40;;
56363;SDS011;42261;52.094;4.326;2023-02-18T03:57:02;23.42;;;10.05;;
56363;SDS011;42261;52.094;4.326;2023-02-18T03:59:46;18.10;;;9.23;;
56363;SDS011;42261;52.094;4.326;2023-02-18T04:02:30;22.52;;;8.43;;
56363;SDS011;42261;52.094;4.326;2023-02-18T04:05:14;25.33;;;9.20;;
56363;SDS011;42261;52.094;4.326;2023-02-18T04:07:58;22.92;;;9.20;;
56363;SDS011;42261;52.094;4.326;2023-02-18T04:10:42;27.20;;;10.35;;
56363;SDS011;42261;52.094;4.326;2023-02-18T04:13:26;21.08;;;7.65;;
56363;SDS011;42261;52.094;4.326;2023-02-18T04:16:10;26.60;;;7.82;;
56363;SDS011;42261;52.094;4.326;2023-02-18T04:18:55;23.27;;;9.27;;
56363;SDS011;42261;52.094;4.326;2023-02-18T04:21:39;24.75;;;8.60;;
56363;SDS011;42261;52.094;4.326;2023-02-18T04:24:23;27.38;;;8.40;;
56363;SDS011;42261;52.094;4.326;2023-02-18T04:27:07;27.88;;;8.30;;
56363;SDS011;42261;52.094;4.326;2023-02-18T04:29:51;17.33;;;7.43;;
56363;SDS011;42261;52.094;4.326;2023-02-18T04:32:35;21.40;;;7.05;;
56363;SDS011;42261;52.094;4.326;2023-02-18T04:35:19;18.30;;;6.68;;
56363;SDS011;42261;52.094;4.326;2023-02-18T04:38:04;17.27;;;7.72;;
56363;SDS011;42261;52.094;4.326;2023-02-18T04:40:47;25.08;;;5.93;;
56363;SDS011;42261;52.094;4.326;2023-02-18T04:43:31;23.33;;;6.40;;
56363;SDS011;42261;52.094;4.326;2023-02-18T04:46:15;19.48;;;7.55;;
56363;SDS011;42261;52.094;4.326;2023-02-18T04:49:00;16.38;;;6.40;;
56363;SDS011;42261;52.094;4.326;2023-02-18T04:51:44;15.25;;;6.63;;
56363;SDS011;42261;52.094;4.326;2023-02-18T04:54:28;16.17;;;5.40;;
56363;SDS011;42261;52.094;4.326;2023-02-18T04:57:12;14.13;;;5.85;;
56363;SDS011;42261;52.094;4.326;2023-02-18T04:59:56;17.98;;;5.72;;
56363;SDS011;42261;52.094;4.326;2023-02-18T05:02:40;22.55;;;6.13;;
56363;SDS011;42261;52.094;4.326;2023-02-18T05:05:24;21.85;;;5.20;;
56363;SDS011;42261;52.094;4.326;2023-02-18T05:08:09;16.48;;;5.97;;
56363;SDS011;42261;52.094;4.326;2023-02-18T05:10:55;17.65;;;6.00;;
56363;SDS011;42261;52.094;4.326;2023-02-18T05:13:39;18.50;;;6.38;;
56363;SDS011;42261;52.094;4.326;2023-02-18T05:16:23;17.85;;;6.07;;
56363;SDS011;42261;52.094;4.326;2023-02-18T05:19:07;13.73;;;4.57;;
56363;SDS011;42261;52.094;4.326;2023-02-18T05:21:51;15.85;;;5.82;;
56363;SDS011;42261;52.094;4.326;2023-02-18T05:24:35;16.23;;;4.47;;
56363;SDS011;42261;52.094;4.326;2023-02-18T05:27:19;15.15;;;5.70;;
56363;SDS011;42261;52.094;4.326;2023-02-18T05:30:04;17.20;;;5.13;;
56363;SDS011;42261;52.094;4.326;2023-02-18T05:32:48;16.40;;;4.63;;
56363;SDS011;42261;52.094;4.326;2023-02-18T05:35:32;15.73;;;5.72;;
56363;SDS011;42261;52.094;4.326;2023-02-18T05:38:16;11.70;;;5.13;;
56363;SDS011;42261;52.094;4.326;2023-02-18T05:41:00;13.95;;;6.45;;
56363;SDS011;42261;52.094;4.326;2023-02-18T05:43:44;19.30;;;5.93;;
56363;SDS011;42261;52.094;4.326;2023-02-18T05:46:47;18.60;;;6.43;;
56363;SDS011;42261;52.094;4.326;2023-02-18T05:49:32;21.85;;;6.43;;
56363;SDS011;42261;52.094;4.326;2023-02-18T05:52:16;17.27;;;6.70;;
56363;SDS011;42261;52.094;4.326;2023-02-18T05:55:01;23.15;;;7.90;;
56363;SDS011;42261;52.094;4.326;2023-02-18T05:57:46;24.95;;;6.50;;
56363;SDS011;42261;52.094;4.326;2023-02-18T06:00:30;15.75;;;6.65;;
56363;SDS011;42261;52.094;4.326;2023-02-18T06:03:14;18.30;;;6.38;;
56363;SDS011;42261;52.094;4.326;2023-02-18T06:05:58;21.38;;;5.60;;
56363;SDS011;42261;52.094;4.326;2023-02-18T06:08:43;15.18;;;5.53;;
56363;SDS011;42261;52.094;4.326;2023-02-18T06:11:27;18.02;;;6.43;;
56363;SDS011;42261;52.094;4.326;2023-02-18T06:14:11;20.73;;;6.45;;
56363;SDS011;42261;52.094;4.326;2023-02-18T06:16:56;16.35;;;5.15;;
56363;SDS011;42261;52.094;4.326;2023-02-18T06:19:40;18.35;;;5.95;;
56363;SDS011;42261;52.094;4.326;2023-02-18T06:22:24;20.52;;;5.88;;
56363;SDS011;42261;52.094;4.326;2023-02-18T06:25:08;19.00;;;4.35;;
56363;SDS011;42261;52.094;4.326;2023-02-18T06:27:52;14.13;;;4.43;;
56363;SDS011;42261;52.094;4.326;2023-02-18T06:30:36;14.98;;;3.78;;
56363;SDS011;42261;52.094;4.326;2023-02-18T06:33:20;13.55;;;5.05;;
56363;SDS011;42261;52.094;4.326;2023-02-18T06:36:05;18.02;;;5.53;;
56363;SDS011;42261;52.094;4.326;2023-02-18T06:38:50;14.30;;;4.95;;
56363;SDS011;42261;52.094;4.326;2023-02-18T06:41:35;23.63;;;4.93;;
56363;SDS011;42261;52.094;4.326;2023-02-18T06:44:19;15.48;;;3.60;;
56363;SDS011;42261;52.094;4.326;2023-02-18T06:47:03;27.40;;;4.72;;
56363;SDS011;42261;52.094;4.326;2023-02-18T06:49:47;20.38;;;4.80;;
56363;SDS011;42261;52.094;4.326;2023-02-18T06:52:31;23.13;;;4.55;;
56363;SDS011;42261;52.094;4.326;2023-02-18T06:55:16;16.98;;;4.45;;
56363;SDS011;42261;52.094;4.326;2023-02-18T06:58:00;18.58;;;3.60;;
56363;SDS011;42261;52.094;4.326;2023-02-18T07:00:44;15.38;;;3.13;;
56363;SDS011;42261;52.094;4.326;2023-02-18T07:03:28;18.35;;;3.42;;
56363;SDS011;42261;52.094;4.326;2023-02-18T07:06:12;16.42;;;2.63;;
56363;SDS011;42261;52.094;4.326;2023-02-18T07:08:56;18.02;;;2.85;;
56363;SDS011;42261;52.094;4.326;2023-02-18T07:11:40;10.63;;;2.28;;
56363;SDS011;42261;52.094;4.326;2023-02-18T07:14:24;10.98;;;2.70;;
56363;SDS011;42261;52.094;4.326;2023-02-18T07:17:10;14.13;;;2.20;;
56363;SDS011;42261;52.094;4.326;2023-02-18T07:19:55;15.70;;;2.75;;
56363;SDS011;42261;52.094;4.326;2023-02-18T07:22:40;16.20;;;2.60;;
56363;SDS011;42261;52.094;4.326;2023-02-18T07:25:24;11.10;;;2.40;;
56363;SDS011;42261;52.094;4.326;2023-02-18T07:28:08;19.05;;;3.13;;
56363;SDS011;42261;52.094;4.326;2023-02-18T07:30:53;12.10;;;3.58;;
56363;SDS011;42261;52.094;4.326;2023-02-18T07:33:37;12.68;;;2.30;;
56363;SDS011;42261;52.094;4.326;2023-02-18T07:36:21;15.63;;;2.50;;
56363;SDS011;42261;52.094;4.326;2023-02-18T07:39:06;12.13;;;2.58;;
56363;SDS011;42261;52.094;4.326;2023-02-18T07:41:50;18.35;;;2.50;;
56363;SDS011;42261;52.094;4.326;2023-02-18T07:44:34;22.45;;;3.30;;
56363;SDS011;42261;52.094;4.326;2023-02-18T07:47:18;9.68;;;1.80;;
56363;SDS011;42261;52.094;4.326;2023-02-18T07:50:04;21.50;;;2.90;;
56363;SDS011;42261;52.094;4.326;2023-02-18T07:52:49;21.05;;;2.85;;
56363;SDS011;42261;52.094;4.326;2023-02-18T07:55:33;15.30;;;3.00;;
56363;SDS011;42261;52.094;4.326;2023-02-18T07:58:34;17.65;;;2.55;;
56363;SDS011;42261;52.094;4.326;2023-02-18T08:01:19;15.65;;;3.03;;
56363;SDS011;42261;52.094;4.326;2023-02-18T08:04:03;21.55;;;2.92;;
56363;SDS011;42261;52.094;4.326;2023-02-18T08:06:47;19.20;;;2.72;;
56363;SDS011;42261;52.094;4.326;2023-02-18T08:09:33;21.00;;;3.95;;
56363;SDS011;42261;52.094;4.326;2023-02-18T08:12:18;15.18;;;2.65;;
56363;SDS011;42261;52.094;4.326;2023-02-18T08:15:02;17.95;;;2.70;;
56363;SDS011;42261;52.094;4.326;2023-02-18T08:17:47;12.85;;;2.50;;
56363;SDS011;42261;52.094;4.326;2023-02-18T08:20:36;16.98;;;2.78;;
56363;SDS011;42261;52.094;4.326;2023-02-18T08:23:21;19.40;;;3.22;;
56363;SDS011;42261;52.094;4.326;2023-02-18T08:26:05;14.65;;;2.97;;
56363;SDS011;42261;52.094;4.326;2023-02-18T08:28:49;12.25;;;2.05;;
56363;SDS011;42261;52.094;4.326;2023-02-18T08:31:33;13.65;;;2.47;;
56363;SDS011;42261;52.094;4.326;2023-02-18T08:34:17;11.60;;;2.90;;
56363;SDS011;42261;52.094;4.326;2023-02-18T08:37:01;20.58;;;2.65;;
56363;SDS011;42261;52.094;4.326;2023-02-18T08:39:46;20.00;;;2.55;;
56363;SDS011;42261;52.094;4.326;2023-02-18T08:42:30;18.58;;;3.22;;
56363;SDS011;42261;52.094;4.326;2023-02-18T08:45:14;21.58;;;3.25;;
56363;SDS011;42261;52.094;4.326;2023-02-18T08:47:59;20.73;;;2.90;;
56363;SDS011;42261;52.094;4.326;2023-02-18T08:50:43;16.88;;;4.18;;
56363;SDS011;42261;52.094;4.326;2023-02-18T08:53:28;12.43;;;2.38;;
56363;SDS011;42261;52.094;4.326;2023-02-18T08:56:14;15.32;;;3.00;;
56363;SDS011;42261;52.094;4.326;2023-02-18T08:59:01;17.73;;;3.15;;
56363;SDS011;42261;52.094;4.326;2023-02-18T09:01:46;21.05;;;3.50;;
56363;SDS011;42261;52.094;4.326;2023-02-18T09:04:31;18.75;;;4.25;;
56363;SDS011;42261;52.094;4.326;2023-02-18T09:07:15;20.95;;;2.78;;
56363;SDS011;42261;52.094;4.326;2023-02-18T09:09:59;16.70;;;2.50;;
56363;SDS011;42261;52.094;4.326;2023-02-18T09:12:43;10.95;;;2.53;;
56363;SDS011;42261;52.094;4.326;2023-02-18T09:15:28;21.52;;;3.00;;
56363;SDS011;42261;52.094;4.326;2023-02-18T09:18:15;17.02;;;2.45;;
56363;SDS011;42261;52.094;4.326;2023-02-18T09:20:59;13.13;;;3.40;;
56363;SDS011;42261;52.094;4.326;2023-02-18T09:23:44;15.32;;;2.65;;
56363;SDS011;42261;52.094;4.326;2023-02-18T09:26:28;15.65;;;2.90;;
56363;SDS011;42261;52.094;4.326;2023-02-18T09:29:12;12.35;;;3.05;;
56363;SDS011;42261;52.094;4.326;2023-02-18T09:32:00;23.40;;;3.78;;
56363;SDS011;42261;52.094;4.326;2023-02-18T09:34:44;19.53;;;2.67;;
56363;SDS011;42261;52.094;4.326;2023-02-18T09:37:29;23.90;;;3.30;;
56363;SDS011;42261;52.094;4.326;2023-02-18T09:40:29;24.83;;;4.07;;
56363;SDS011;42261;52.094;4.326;2023-02-18T09:43:21;24.23;;;3.33;;
56363;SDS011;42261;52.094;4.326;2023-02-18T09:46:09;21.75;;;3.60;;
56363;SDS011;42261;52.094;4.326;2023-02-18T09:51:40;19.63;;;3.22;;
56363;SDS011;42261;52.094;4.326;2023-02-18T09:54:25;18.30;;;2.72;;
56363;SDS011;42261;52.094;4.326;2023-02-18T09:57:14;14.85;;;2.42;;
56363;SDS011;42261;52.094;4.326;2023-02-18T10:00:05;20.95;;;3.30;;
56363;SDS011;42261;52.094;4.326;2023-02-18T10:03:33;20.38;;;3.30;;
56363;SDS011;42261;52.094;4.326;2023-02-18T10:06:00;16.73;;;2.80;;
56363;SDS011;42261;52.094;4.326;2023-02-18T10:08:46;13.05;;;2.72;;
56363;SDS011;42261;52.094;4.326;2023-02-18T10:11:32;15.13;;;2.88;;
56363;SDS011;42261;52.094;4.326;2023-02-18T10:14:18;18.05;;;2.30;;
56363;SDS011;42261;52.094;4.326;2023-02-18T10:17:03;25.90;;;3.33;;
56363;SDS011;42261;52.094;4.326;2023-02-18T10:19:47;20.48;;;5.13;;
56363;SDS011;42261;52.094;4.326;2023-02-18T10:22:32;23.20;;;3.80;;
56363;SDS011;42261;52.094;4.326;2023-02-18T10:25:17;16.05;;;2.67;;
56363;SDS011;42261;52.094;4.326;2023-02-18T10:28:02;24.90;;;4.10;;
56363;SDS011;42261;52.094;4.326;2023-02-18T10:30:50;22.42;;;3.38;;
56363;SDS011;42261;52.094;4.326;2023-02-18T10:33:46;22.02;;;3.42;;
56363;SDS011;42261;52.094;4.326;2023-02-18T10:36:43;17.50;;;3.50;;
56363;SDS011;42261;52.094;4.326;2023-02-18T10:42:34;15.73;;;2.80;;
56363;SDS011;42261;52.094;4.326;2023-02-18T10:45:32;12.45;;;2.40;;
56363;SDS011;42261;52.094;4.326;2023-02-18T10:48:27;17.27;;;3.50;;
56363;SDS011;42261;52.094;4.326;2023-02-18T10:51:17;16.15;;;3.08;;
56363;SDS011;42261;52.094;4.326;2023-02-18T10:54:02;15.23;;;2.33;;
56363;SDS011;42261;52.094;4.326;2023-02-18T10:56:48;12.20;;;2.95;;
56363;SDS011;42261;52.094;4.326;2023-02-18T10:59:32;19.50;;;3.35;;
56363;SDS011;42261;52.094;4.326;2023-02-18T11:02:17;11.32;;;2.85;;
56363;SDS011;42261;52.094;4.326;2023-02-18T11:05:05;17.17;;;3.20;;
56363;SDS011;42261;52.094;4.326;2023-02-18T11:07:50;13.87;;;2.37;;
56363;SDS011;42261;52.094;4.326;2023-02-18T11:10:37;12.73;;;2.92;;
56363;SDS011;42261;52.094;4.326;2023-02-18T11:13:28;10.63;;;2.33;;
56363;SDS011;42261;52.094;4.326;2023-02-18T11:16:13;13.73;;;2.20;;
56363;SDS011;42261;52.094;4.326;2023-02-18T11:18:57;14.68;;;2.10;;
56363;SDS011;42261;52.094;4.326;2023-02-18T11:24:30;20.52;;;2.05;;
56363;SDS011;42261;52.094;4.326;2023-02-18T11:30:20;10.38;;;1.90;;
56363;SDS011;42261;52.094;4.326;2023-02-18T11:33:08;21.20;;;2.10;;
56363;SDS011;42261;52.094;4.326;2023-02-18T11:35:53;13.80;;;1.85;;
56363;SDS011;42261;52.094;4.326;2023-02-18T11:38:49;12.93;;;3.97;;
56363;SDS011;42261;52.094;4.326;2023-02-18T11:41:41;16.88;;;1.90;;
56363;SDS011;42261;52.094;4.326;2023-02-18T11:50:05;11.57;;;2.20;;
56363;SDS011;42261;52.094;4.326;2023-02-18T11:52:58;19.45;;;2.75;;
56363;SDS011;42261;52.094;4.326;2023-02-18T11:55:42;6.45;;;2.28;;
56363;SDS011;42261;52.094;4.326;2023-02-18T11:58:40;8.73;;;2.15;;
56363;SDS011;42261;52.094;4.326;2023-02-18T12:01:37;15.25;;;2.83;;
56363;SDS011;42261;52.094;4.326;2023-02-18T12:04:28;14.30;;;1.83;;
56363;SDS011;42261;52.094;4.326;2023-02-18T12:07:24;23.33;;;2.63;;
56363;SDS011;42261;52.094;4.326;2023-02-18T12:10:32;7.97;;;1.80;;
56363;SDS011;42261;52.094;4.326;2023-02-18T12:13:24;11.98;;;4.30;;
56363;SDS011;42261;52.094;4.326;2023-02-18T12:16:15;10.95;;;2.03;;
56363;SDS011;42261;52.094;4.326;2023-02-18T12:27:28;9.60;;;1.70;;
56363;SDS011;42261;52.094;4.326;2023-02-18T12:35:55;10.25;;;1.83;;
56363;SDS011;42261;52.094;4.326;2023-02-18T12:41:37;10.10;;;1.83;;
56363;SDS011;42261;52.094;4.326;2023-02-18T12:53:15;11.85;;;2.60;;
56363;SDS011;42261;52.094;4.326;2023-02-18T13:01:41;11.68;;;1.88;;
56363;SDS011;42261;52.094;4.326;2023-02-18T13:04:32;10.65;;;2.67;;
56363;SDS011;42261;52.094;4.326;2023-02-18T13:13:03;13.85;;;2.78;;
56363;SDS011;42261;52.094;4.326;2023-02-18T13:18:44;11.10;;;1.95;;
56363;SDS011;42261;52.094;4.326;2023-02-18T13:21:31;9.88;;;2.42;;
56363;SDS011;42261;52.094;4.326;2023-02-18T13:24:26;13.05;;;1.92;;
56363;SDS011;42261;52.094;4.326;2023-02-18T13:27:15;14.65;;;2.58;;
56363;SDS011;42261;52.094;4.326;2023-02-18T13:33:05;17.95;;;2.63;;
56363;SDS011;42261;52.094;4.326;2023-02-18T13:35:59;14.20;;;2.15;;
56363;SDS011;42261;52.094;4.326;2023-02-18T13:45:04;8.77;;;1.75;;
56363;SDS011;42261;52.094;4.326;2023-02-18T13:47:50;7.38;;;2.75;;
56363;SDS011;42261;52.094;4.326;2023-02-18T13:50:39;11.45;;;2.65;;
56363;SDS011;42261;52.094;4.326;2023-02-18T13:53:23;14.32;;;1.70;;
56363;SDS011;42261;52.094;4.326;2023-02-18T13:58:58;5.70;;;1.70;;
56363;SDS011;42261;52.094;4.326;2023-02-18T14:01:45;10.70;;;2.15;;
56363;SDS011;42261;52.094;4.326;2023-02-18T14:13:16;13.60;;;2.90;;
56363;SDS011;42261;52.094;4.326;2023-02-18T14:16:02;10.93;;;1.85;;
56363;SDS011;42261;52.094;4.326;2023-02-18T14:19:22;14.75;;;1.70;;
56363;SDS011;42261;52.094;4.326;2023-02-18T14:21:50;10.95;;;2.08;;
56363;SDS011;42261;52.094;4.326;2023-02-18T14:24:55;11.57;;;2.17;;
56363;SDS011;42261;52.094;4.326;2023-02-18T14:27:41;15.20;;;2.42;;
56363;SDS011;42261;52.094;4.326;2023-02-18T14:30:32;10.70;;;2.13;;
56363;SDS011;42261;52.094;4.326;2023-02-18T14:33:18;11.20;;;2.22;;
56363;SDS011;42261;52.094;4.326;2023-02-18T14:36:20;8.43;;;1.52;;
56363;SDS011;42261;52.094;4.326;2023-02-18T14:39:26;9.05;;;3.58;;
56363;SDS011;42261;52.094;4.326;2023-02-18T14:45:14;20.00;;;3.15;;
56363;SDS011;42261;52.094;4.326;2023-02-18T14:50:45;11.98;;;3.70;;
56363;SDS011;42261;52.094;4.326;2023-02-18T14:53:30;24.25;;;3.70;;
56363;SDS011;42261;52.094;4.326;2023-02-18T14:56:16;10.48;;;2.00;;
56363;SDS011;42261;52.094;4.326;2023-02-18T14:59:01;13.77;;;2.60;;
56363;SDS011;42261;52.094;4.326;2023-02-18T15:01:47;6.75;;;1.90;;
56363;SDS011;42261;52.094;4.326;2023-02-18T15:04:31;14.70;;;2.45;;
56363;SDS011;42261;52.094;4.326;2023-02-18T15:07:17;11.20;;;2.78;;
56363;SDS011;42261;52.094;4.326;2023-02-18T15:10:02;10.07;;;2.25;;
56363;SDS011;42261;52.094;4.326;2023-02-18T15:12:46;11.77;;;2.67;;
56363;SDS011;42261;52.094;4.326;2023-02-18T15:15:31;15.65;;;2.55;;
56363;SDS011;42261;52.094;4.326;2023-02-18T15:18:19;14.63;;;3.25;;
56363;SDS011;42261;52.094;4.326;2023-02-18T15:21:05;13.93;;;2.63;;
56363;SDS011;42261;52.094;4.326;2023-02-18T15:23:50;13.15;;;2.65;;
56363;SDS011;42261;52.094;4.326;2023-02-18T15:26:41;13.05;;;1.92;;
56363;SDS011;42261;52.094;4.326;2023-02-18T15:29:30;16.85;;;2.50;;
56363;SDS011;42261;52.094;4.326;2023-02-18T15:32:17;11.20;;;2.75;;
56363;SDS011;42261;52.094;4.326;2023-02-18T15:35:11;15.02;;;3.28;;
56363;SDS011;42261;52.094;4.326;2023-02-18T15:37:58;20.75;;;2.50;;
56363;SDS011;42261;52.094;4.326;2023-02-18T15:40:43;17.48;;;4.45;;
56363;SDS011;42261;52.094;4.326;2023-02-18T15:43:29;16.80;;;2.55;;
56363;SDS011;42261;52.094;4.326;2023-02-18T15:46:15;12.15;;;2.88;;
56363;SDS011;42261;52.094;4.326;2023-02-18T15:48:59;14.50;;;2.33;;
56363;SDS011;42261;52.094;4.326;2023-02-18T15:51:43;11.23;;;2.60;;
56363;SDS011;42261;52.094;4.326;2023-02-18T15:54:27;16.73;;;3.03;;
56363;SDS011;42261;52.094;4.326;2023-02-18T15:57:13;16.45;;;2.92;;
56363;SDS011;42261;52.094;4.326;2023-02-18T16:00:04;13.05;;;4.07;;
56363;SDS011;42261;52.094;4.326;2023-02-18T16:02:51;14.73;;;2.42;;
56363;SDS011;42261;52.094;4.326;2023-02-18T16:05:36;23.15;;;2.80;;
56363;SDS011;42261;52.094;4.326;2023-02-18T16:08:27;19.30;;;3.00;;
56363;SDS011;42261;52.094;4.326;2023-02-18T16:11:15;15.38;;;3.40;;
56363;SDS011;42261;52.094;4.326;2023-02-18T16:13:59;15.45;;;2.40;;
56363;SDS011;42261;52.094;4.326;2023-02-18T16:16:44;14.88;;;2.80;;
56363;SDS011;42261;52.094;4.326;2023-02-18T16:19:43;24.35;;;3.72;;
56363;SDS011;42261;52.094;4.326;2023-02-18T16:25:25;19.83;;;3.47;;
56363;SDS011;42261;52.094;4.326;2023-02-18T16:31:02;21.73;;;3.65;;
56363;SDS011;42261;52.094;4.326;2023-02-18T16:33:48;11.88;;;2.45;;
56363;SDS011;42261;52.094;4.326;2023-02-18T16:36:32;23.15;;;3.65;;
56363;SDS011;42261;52.094;4.326;2023-02-18T16:39:16;16.40;;;3.35;;
56363;SDS011;42261;52.094;4.326;2023-02-18T16:42:00;15.65;;;4.47;;
56363;SDS011;42261;52.094;4.326;2023-02-18T16:44:45;19.25;;;3.63;;
56363;SDS011;42261;52.094;4.326;2023-02-18T16:47:34;16.40;;;3.23;;
56363;SDS011;42261;52.094;4.326;2023-02-18T16:50:19;17.70;;;3.75;;
56363;SDS011;42261;52.094;4.326;2023-02-18T16:53:03;18.42;;;3.15;;
56363;SDS011;42261;52.094;4.326;2023-02-18T16:55:48;15.20;;;3.13;;
56363;SDS011;42261;52.094;4.326;2023-02-18T16:58:33;17.23;;;4.38;;
56363;SDS011;42261;52.094;4.326;2023-02-18T17:01:21;18.55;;;2.85;;
56363;SDS011;42261;52.094;4.326;2023-02-18T17:04:08;15.88;;;3.25;;
56363;SDS011;42261;52.094;4.326;2023-02-18T17:06:54;15.95;;;4.55;;
56363;SDS011;42261;52.094;4.326;2023-02-18T17:09:39;17.05;;;3.40;;
56363;SDS011;42261;52.094;4.326;2023-02-18T17:12:23;15.70;;;4.50;;
56363;SDS011;42261;52.094;4.326;2023-02-18T17:15:11;14.02;;;3.20;;
56363;SDS011;42261;52.094;4.326;2023-02-18T17:17:56;20.83;;;3.85;;
56363;SDS011;42261;52.094;4.326;2023-02-18T17:20:42;20.15;;;4.43;;
56363;SDS011;42261;52.094;4.326;2023-02-18T17:23:26;18.80;;;3.28;;
56363;SDS011;42261;52.094;4.326;2023-02-18T17:29:04;18.08;;;3.25;;
56363;SDS011;42261;52.094;4.326;2023-02-18T17:31:48;33.05;;;5.25;;
56363;SDS011;42261;52.094;4.326;2023-02-18T17:34:36;18.25;;;4.07;;
56363;SDS011;42261;52.094;4.326;2023-02-18T17:37:23;14.73;;;3.13;;
56363;SDS011;42261;52.094;4.326;2023-02-18T17:40:13;16.55;;;3.58;;
56363;SDS011;42261;52.094;4.326;2023-02-18T17:42:57;19.90;;;6.30;;
56363;SDS011;42261;52.094;4.326;2023-02-18T17:45:51;19.05;;;4.70;;
56363;SDS011;42261;52.094;4.326;2023-02-18T17:48:39;13.32;;;2.65;;
56363;SDS011;42261;52.094;4.326;2023-02-18T17:51:29;19.05;;;3.15;;
56363;SDS011;42261;52.094;4.326;2023-02-18T17:54:21;12.43;;;2.75;;
56363;SDS011;42261;52.094;4.326;2023-02-18T17:57:39;15.75;;;3.25;;
56363;SDS011;42261;52.094;4.326;2023-02-18T18:00:43;20.83;;;4.22;;
56363;SDS011;42261;52.094;4.326;2023-02-18T18:03:27;15.18;;;3.60;;
56363;SDS011;42261;52.094;4.326;2023-02-18T18:06:15;22.85;;;4.22;;
56363;SDS011;42261;52.094;4.326;2023-02-18T18:09:01;18.33;;;4.43;;
56363;SDS011;42261;52.094;4.326;2023-02-18T18:11:45;17.58;;;3.80;;
56363;SDS011;42261;52.094;4.326;2023-02-18T18:14:29;23.75;;;5.25;;
56363;SDS011;42261;52.094;4.326;2023-02-18T18:17:19;17.35;;;3.40;;
56363;SDS011;42261;52.094;4.326;2023-02-18T18:20:06;17.98;;;4.22;;
56363;SDS011;42261;52.094;4.326;2023-02-18T18:22:50;18.30;;;6.18;;
56363;SDS011;42261;52.094;4.326;2023-02-18T18:25:42;19.52;;;4.03;;
56363;SDS011;42261;52.094;4.326;2023-02-18T18:28:26;21.85;;;5.55;;
56363;SDS011;42261;52.094;4.326;2023-02-18T18:31:12;18.40;;;3.78;;
56363;SDS011;42261;52.094;4.326;2023-02-18T18:33:58;17.30;;;3.85;;
56363;SDS011;42261;52.094;4.326;2023-02-18T18:36:42;16.85;;;3.63;;
56363;SDS011;42261;52.094;4.326;2023-02-18T18:39:26;17.30;;;3.78;;
56363;SDS011;42261;52.094;4.326;2023-02-18T18:42:10;21.83;;;4.80;;